Flight Track Log - Related Links

Times and Time Zones

All times are in EDT time to prevent confusion due to time zone crossing. See the CPZ5714 flight status page for this flight to view local times or setup timezone preferences in your user account.

Time Position Orientation Groundspeed Altitude Reporting Facility
EDT Latitude Longitude Course Direction KTS MPH feet Rate Location/Type
Mon 08:48:37 PM 44.8833 -93.1333 70° East 176 203 2,600  Level Minneapolis TRACON
Mon 08:49:12 PM 44.8942 -93.1142 51° Northeast 210 242 3,000 1,776 Climbing Minneapolis Center
Mon 08:50:15 PM 44.9639 -93.0581 30° Northeast 254 292 5,500 2,496 Climbing Minneapolis Center
Mon 08:51:17 PM 45.0206 -92.9778 45° Northeast 289 333 8,200 2,613 Climbing Minneapolis Center
Mon 08:52:00 PM 45.0867 -92.4531 70° East  Level FlightAware
Mon 08:52:19 PM 45.0797 -92.8942 45° Northeast 301 346 10,900  Level Minneapolis Center
Mon 08:53:00 PM 45.1218 -92.2964 70° East  Level FlightAware
Mon 08:53:21 PM 45.1444 -92.8025 45° Northeast 329 379 12,700  Level Minneapolis Center
Mon 08:54:00 PM 45.1604 -92.1420 70° East  Level FlightAware
Mon 08:54:23 PM 45.2150 -92.7033 45° Northeast 356 410 15,200  Level Minneapolis Center
Mon 08:55:25 PM 45.2631 -92.5811 61° Northeast 366 421 17,200 1,935 Climbing Minneapolis Center
Mon 08:56:27 PM 45.2858 -92.4064 79° East 375 432 19,200 1,742 Climbing Minneapolis Center
Mon 08:57:29 PM 45.3092 -92.2469 78° East 406 467 20,800 1,500 Climbing Minneapolis Center
Mon 08:58:31 PM 45.3306 -92.0825 79° East 421 484 22,300 1,452 Climbing Minneapolis Center
Mon 08:59:33 PM 45.3544 -91.9139 79° East 433 498 23,800 1,258 Climbing Minneapolis Center
Mon 09:00:35 PM 45.3739 -91.7753 79° East 441 507 24,900 1,306 Climbing Minneapolis Center
Mon 09:01:37 PM 45.4025 -91.5647 79° East 450 518 26,500 1,355 Climbing Minneapolis Center
Mon 09:02:39 PM 45.4294 -91.3469 80° East 465 535 27,700 1,065 Climbing Minneapolis Center
Mon 09:03:41 PM 45.4547 -91.1547 79° East 472 543 28,700 838 Climbing Minneapolis Center
Mon 09:04:55 PM 45.4550 -90.9675 90° East 479 551 29,600 920 Climbing Minneapolis Center
Mon 09:05:58 PM 45.3947 -90.7639 113° Southeast 469 540 30,800 1,056 Climbing Minneapolis Center
Mon 09:07:00 PM 45.3411 -90.5922 114° Southeast 474 545 31,800 1,016 Climbing Minneapolis Center
Mon 09:08:02 PM 45.2886 -90.4253 114° Southeast 470 541 32,900 629 Climbing Minneapolis Center
Mon 09:09:04 PM 45.2350 -90.2572 114° Southeast 470 541 33,100 581 Climbing Minneapolis Center
Mon 09:10:06 PM 45.1714 -90.0572 114° Southeast 467 537 34,100 794 Climbing Minneapolis Center
Mon 09:11:20 PM 45.1192 -89.8933 114° Southeast 462 532 34,900 394 Climbing Minneapolis Center
Mon 09:12:23 PM 45.0514 -89.6825 114° Southeast 460 529 35,000 48 Climbing Minneapolis Center
Mon 09:13:25 PM 44.9978 -89.5192 115° Southeast 458 527 35,000  Level Minneapolis Center
Mon 09:14:27 PM 44.9447 -89.3561 115° Southeast 457 526 35,000  Level Minneapolis Center
Mon 09:15:29 PM 44.8911 -89.1925 115° Southeast 458 527 35,000  Level Minneapolis Center
Mon 09:16:31 PM 44.8361 -89.0286 115° Southeast 461 531 35,000  Level Minneapolis Center
Mon 09:17:33 PM 44.7825 -88.8650 115° Southeast 460 529 35,000  Level Minneapolis Center
Mon 09:18:35 PM 44.7178 -88.6753 116° Southeast 460 529 35,000  Level Minneapolis Center
Mon 09:19:37 PM 44.6625 -88.5106 115° Southeast 463 533 35,000  Level Minneapolis Center
Mon 09:20:39 PM 44.6067 -88.3467 116° Southeast 463 533 35,000  Level Minneapolis Center
Mon 09:21:41 PM 44.5625 -88.2106 114° Southeast 460 529 35,000  Level Minneapolis Center
Mon 09:22:43 PM 44.5525 -87.9942 94° East 476 548 35,000  Level Minneapolis Center
Mon 09:23:45 PM 44.5494 -87.8144 91° East 478 550 35,000  Level Minneapolis Center
Mon 09:24:47 PM 44.5453 -87.5936 91° East 476 548 35,000  Level Minneapolis Center
Mon 09:25:49 PM 44.5422 -87.4086 91° East 476 548 35,000 424 Level Minneapolis Center
Mon 09:27:00 PM 44.5334 -87.2110 90° East  Level FlightAware
Mon 09:28:05 PM 44.5286 -87.0081 96° East 469 540 36,400  Level Minneapolis Center
Mon 09:31:00 PM 44.4858 -86.5255 97° East  Level FlightAware
Mon 09:31:24 PM 44.4744 -86.4022 97° East 465 535 37,000  Level Minneapolis Center
Mon 09:32:26 PM 44.4578 -86.2231 97° East 469 540 37,000  Level Minneapolis Center
Mon 09:33:27 PM 44.4414 -86.0450 97° East 468 539 37,000  Level Minneapolis Center
Mon 09:34:00 PM 44.4444 -86.0509 96° East  Level Estimated
Mon 09:34:29 PM 44.4244 -85.8658 97° East 469 540 37,000  Level Minneapolis Center
Mon 09:35:31 PM 44.4047 -85.6511 97° East 470 541 37,000  Level Minneapolis Center
Mon 09:36:33 PM 44.3883 -85.4719 97° East 468 539 37,000  Level Minneapolis Center
Mon 09:37:35 PM 44.3703 -85.2914 98° East 472 543 37,000  Level Minneapolis Center
Mon 09:38:36 PM 44.3564 -85.1478 98° East 470 541 37,000  Level Minneapolis Center
Mon 09:39:38 PM 44.3378 -84.9664 98° East 473 544 37,000  Level Minneapolis Center
Mon 09:40:40 PM 44.3117 -84.7164 98° East 468 539 37,000  Level Minneapolis Center
Mon 09:41:42 PM 44.2936 -84.5383 98° East 467 537 37,000  Level Minneapolis Center
Mon 09:42:44 PM 44.2739 -84.3575 99° East 471 542 37,000  Level Minneapolis Center
Mon 09:43:46 PM 44.2539 -84.1783 99° East 471 542 37,000  Level Minneapolis Center
Mon 09:44:47 PM 44.2344 -83.9981 98° East 472 543 37,000  Level Minneapolis Center
Mon 09:45:49 PM 44.2189 -83.8542 99° East 472 543 37,000  Level Minneapolis Center
Mon 09:46:51 PM 44.1944 -83.6383 99° East 471 542 37,000  Level Minneapolis Center
Mon 09:47:53 PM 44.1703 -83.4214 99° East 474 545 37,000  Level Minneapolis Center
Mon 09:49:06 PM 44.1489 -83.2419 99° East 472 543 37,000  Level Minneapolis Center
Mon 09:50:08 PM 44.1239 -83.0267 99° East 471 542 37,000  Level Minneapolis Center
Mon 09:51:10 PM 44.1028 -82.8486 99° East 469 540 37,000  Level Minneapolis Center
Mon 09:52:11 PM 44.0797 -82.6681 100° East 472 543 37,000  Level Minneapolis Center
Mon 09:53:13 PM 44.0569 -82.4889 100° East 474 545 37,000  Level Minneapolis Center
Mon 09:54:05 PM 44.0167 -82.3000 106° East 470 541 37,000  Level Toronto Center
Mon 09:55:05 PM 43.9833 -82.1167 104° East 470 541 37,000  Level Toronto Center
Mon 09:56:05 PM 43.9667 -81.9500 98° East 470 541 37,000  Level Toronto Center
Mon 09:57:05 PM 43.9500 -81.7667 97° East 470 541 37,000  Level Toronto Center
Mon 09:58:05 PM 43.9333 -81.5833 97° East 460 529 37,000  Level Toronto Center
Mon 09:59:05 PM 43.9000 -81.4167 105° East 460 529 37,000  Level Toronto Center
Mon 10:00:05 PM 43.8833 -81.2333 97° East 470 541 37,000  Level Toronto Center
Mon 10:01:05 PM 43.8500 -81.0667 105° East 470 541 37,000 -300 Level Toronto Center
Mon 10:02:05 PM 43.8167 -80.8833 104° East 470 541 36,400 -800 Descending Toronto Center
Mon 10:03:05 PM 43.8167 -80.7000 90° East 470 541 35,400 -700 Descending Toronto Center
Mon 10:04:05 PM 43.7833 -80.5167 104° East 470 541 35,000 -200 Descending Toronto Center
Mon 10:05:05 PM 43.7667 -80.3500 98° East 470 541 35,000  Level Toronto Center
Mon 10:06:05 PM 43.7333 -80.1833 105° East 470 541 35,000  Level Toronto Center
Mon 10:07:05 PM 43.7000 -80.0000 104° East 470 541 35,000  Level Toronto Center
Mon 10:08:05 PM 43.6833 -79.8167 97° East 470 541 35,000  Level Toronto Center
Mon 10:09:05 PM 43.6500 -79.6333 104° East 480 552 35,000  Level Toronto Center
Mon 10:10:05 PM 43.6333 -79.4500 97° East 480 552 35,000  Level Toronto Center
Mon 10:11:05 PM 43.6000 -79.2833 105° East 470 541 35,000  Level Toronto Center
Mon 10:12:05 PM 43.5833 -79.1000 97° East 470 541 35,000  Level Toronto Center
Mon 10:13:05 PM 43.5667 -78.9167 97° East 480 552 35,000  Level Toronto Center
Mon 10:14:05 PM 43.5333 -78.7333 104° East 480 552 35,000  Level Toronto Center
Mon 10:15:05 PM 43.5167 -78.5500 97° East 480 552 35,000  Level Toronto Center
Mon 10:16:05 PM 43.4667 -78.4000 115° Southeast 470 541 35,000 -250 Level Toronto Center
Mon 10:17:05 PM 43.4500 -78.2167 97° East 470 541 34,500 -700 Descending Toronto Center
Mon 10:18:05 PM 43.4333 -78.0333 97° East 470 541 33,600 -1,000 Descending Toronto Center
Mon 10:19:05 PM 43.4000 -77.8500 104° East 470 541 32,500 -1,000 Descending Toronto Center
Mon 10:20:23 PM 43.3858 -77.6494 95° East 464 534 31,300 -957 Descending Cleveland Center
Mon 10:21:23 PM 43.3583 -77.4736 102° East 464 534 30,300 -1,000 Descending Cleveland Center
Mon 10:22:23 PM 43.3328 -77.3008 101° East 464 534 29,300 -1,000 Descending Cleveland Center
Mon 10:23:23 PM 43.3069 -77.1311 102° East 464 534 28,300 -481 Descending Cleveland Center
Mon 10:25:05 PM 43.2500 -76.8167 104° East 460 529 28,000 -111 Descending Toronto Center
Mon 10:26:05 PM 43.2167 -76.6333 104° East 460 529 28,000  Level Toronto Center
Mon 10:28:19 PM 43.1808 -76.3100 99° East 455 524 28,000 -62 Level Boston Center
Mon 10:29:19 PM 43.1533 -76.1347 102° East 455 524 27,800 -600 Descending Boston Center
Mon 10:30:19 PM 43.1233 -75.9650 104° East 455 524 26,800 -1,000 Descending Boston Center
Mon 10:31:19 PM 43.0969 -75.8014 102° East 455 524 25,800 -1,000 Descending Boston Center
Mon 10:32:19 PM 43.0703 -75.6378 103° East 449 517 24,800 -1,000 Descending Boston Center
Mon 10:33:19 PM 43.0414 -75.4742 104° East 439 505 23,800 -1,000 Descending Boston Center
Mon 10:34:19 PM 43.0164 -75.3169 102° East 434 499 22,800 -1,000 Descending Boston Center
Mon 10:35:19 PM 42.9889 -75.1622 104° East 429 494 21,800 -1,286 Descending Boston Center
Mon 10:36:11 PM 42.9631 -75.0164 104° East 420 483 20,400 -2,000 Descending Boston Center
Mon 10:37:19 PM 42.9372 -74.8650 103° East 402 463 17,800 -2,438 Descending Boston Center
Mon 10:38:19 PM 42.9114 -74.7108 103° East 388 447 15,200 -2,600 Descending Boston Center
Mon 10:39:19 PM 42.8869 -74.5739 104° East 373 429 12,600 -2,150 Descending Boston Center
Mon 10:40:19 PM 42.8681 -74.4600 103° East 356 410 10,900 -1,700 Descending Boston Center
Mon 10:41:19 PM 42.8681 -74.3325 90° East 314 361 9,200 -1,600 Descending Boston Center
Mon 10:42:19 PM 42.8781 -74.2308 82° East 302 348 7,700 -1,700 Descending Boston Center
Mon 10:43:19 PM 42.8925 -74.1122 81° East 291 335 5,800 -1,750 Descending Boston Center
Mon 10:44:19 PM 42.9044 -74.0075 81° East 285 328 4,200 -1,600 Descending Boston Center
Mon 10:45:19 PM 42.9161 -73.9086 81° East 267 307 2,600 -1,050 Descending Boston Center
Mon 10:46:19 PM 42.8961 -73.8344 110° East 214 246 2,100 -200 Descending Boston Center
Mon 10:47:19 PM 42.8592 -73.7969 143° Southeast 189 217 2,200 100 Climbing Boston Center

Login

Don't have an account? Register now (free) for customized features, flight alerts, and more!